Time;durP1;ratioP1;P1;durP2;ratioP2;P2;SDS_P1;SDS_P2;PMS_P1;PMS_P2;Temp;Humidity;BMP_temperature;BMP_pressure;BME280_temperature;BME280_humidity;BME280_pressure;Samples;Min_cycle;Max_cycle;Signal;HPM_P1;HPM_P2
2024/01/30 00:00:13;;;;;;;3.47;1.70;;;;;;;4.83;100.00;99710.50;15290530;19;20018;-57
2024/01/30 00:05:38;;;;;;;2.85;1.60;;;;;;;4.82;100.00;99716.81;15029569;19;5001582;-57
2024/01/30 00:11:05;;;;;;;2.78;1.83;;;;;;;4.86;100.00;99713.00;15290761;19;20082;-57
2024/01/30 00:16:30;;;;;;;3.20;1.77;;;;;;;4.96;100.00;99709.75;15291387;19;20034;-56
2024/01/30 00:21:54;;;;;;;3.22;1.88;;;;;;;4.91;100.00;99710.91;15293040;19;20018;-57
2024/01/30 00:27:22;;;;;;;3.70;1.70;;;;;;;4.83;100.00;99710.50;15290011;19;20081;-56
2024/01/30 00:32:46;;;;;;;3.20;1.80;;;;;;;4.72;100.00;99710.28;15291440;19;20018;-57
2024/01/30 00:38:11;;;;;;;4.57;2.05;;;;;;;4.73;100.00;99706.69;15287478;19;20010;-57
2024/01/30 00:43:38;;;;;;;2.97;1.83;;;;;;;4.70;100.00;99694.38;15294705;19;20074;-57
2024/01/30 00:49:03;;;;;;;3.05;1.90;;;;;;;4.72;100.00;99694.28;15290861;19;20017;-57
2024/01/30 00:54:27;;;;;;;5.50;1.92;;;;;;;4.73;100.00;99696.84;15288160;19;20010;-57
2024/01/30 00:59:55;;;;;;;3.33;1.80;;;;;;;4.74;100.00;99697.72;15283328;19;20019;-57
2024/01/30 01:05:19;;;;;;;3.45;2.00;;;;;;;4.76;100.00;99690.47;15284554;19;20488;-57
2024/01/30 01:10:44;;;;;;;4.15;1.65;;;;;;;4.70;100.00;99690.84;15277781;19;20023;-56
2024/01/30 01:16:11;;;;;;;3.30;1.75;;;;;;;4.58;100.00;99692.44;15291864;19;20415;-56
2024/01/30 01:21:36;;;;;;;2.70;1.70;;;;;;;4.53;100.00;99692.69;15027581;19;5001137;-56
2024/01/30 01:27:01;;;;;;;2.60;1.70;;;;;;;4.64;100.00;99692.06;15285607;19;20017;-53
2024/01/30 01:32:28;;;;;;;2.60;1.70;;;;;;;4.69;100.00;99684.66;15283127;19;20491;-58
2024/01/30 01:37:54;;;;;;;3.25;1.88;;;;;;;4.72;100.00;99683.59;15288602;19;20754;-57
2024/01/30 01:43:19;;;;;;;3.08;1.75;;;;;;;4.76;100.00;99693.16;15283690;19;20015;-57
2024/01/30 01:48:46;;;;;;;5.15;1.80;;;;;;;4.74;100.00;99682.53;15282506;19;20023;-57
2024/01/30 01:54:13;;;;;;;2.35;1.60;;;;;;;4.75;100.00;99678.94;15290890;19;20685;-56
2024/01/30 01:59:38;;;;;;;2.88;1.67;;;;;;;4.71;100.00;99672.03;15287519;19;20094;-57
2024/01/30 02:05:05;;;;;;;2.35;1.70;;;;;;;4.70;100.00;99669.47;15284771;19;20111;-53
2024/01/30 02:10:29;;;;;;;3.00;1.73;;;;;;;4.68;100.00;99660.69;15298043;19;20037;-55
2024/01/30 02:15:59;;;;;;;1.88;1.65;;;;;;;4.62;100.00;99660.13;15297992;19;20352;-53
2024/01/30 02:21:27;;;;;;;4.10;1.60;;;;;;;4.55;100.00;99666.78;15296429;19;20086;-54
2024/01/30 02:26:51;;;;;;;2.08;1.60;;;;;;;4.55;100.00;99663.25;15290812;19;20017;-55
2024/01/30 02:32:15;;;;;;;2.38;1.48;;;;;;;4.49;100.00;99667.16;15296460;19;20547;-55
2024/01/30 02:37:43;;;;;;;3.05;1.67;;;;;;;4.42;100.00;99660.44;15303277;19;20123;-54
2024/01/30 02:43:08;;;;;;;3.08;1.70;;;;;;;4.36;100.00;99659.00;15303570;19;20074;-54
2024/01/30 02:48:40;;;;;;;2.67;1.75;;;;;;;4.37;100.00;99657.22;15294990;19;20018;-53
2024/01/30 02:54:08;;;;;;;3.28;1.63;;;;;;;4.30;100.00;99652.22;15300765;19;20024;-52
2024/01/30 02:59:35;;;;;;;2.30;1.63;;;;;;;4.23;100.00;99650.88;15300144;19;20019;-53
2024/01/30 03:05:00;;;;;;;2.00;1.50;;;;;;;4.16;100.00;99654.88;15300904;19;20078;-52
2024/01/30 03:10:28;;;;;;;2.15;1.45;;;;;;;4.14;100.00;99646.09;15286565;19;20495;-53
2024/01/30 03:15:52;;;;;;;2.03;1.52;;;;;;;4.13;100.00;99650.56;15301434;19;20086;-53
2024/01/30 03:21:17;;;;;;;2.58;1.60;;;;;;;4.11;100.00;99647.16;15279606;19;20028;-56
2024/01/30 03:26:44;;;;;;;3.58;1.80;;;;;;;4.12;100.00;99653.31;15291693;19;20019;-55
2024/01/30 03:32:09;;;;;;;3.85;1.83;;;;;;;4.11;100.00;99643.59;15289640;19;20035;-55
2024/01/30 03:37:33;;;;;;;2.05;1.60;;;;;;;4.16;100.00;99637.03;15293930;19;20021;-51
2024/01/30 03:43:01;;;;;;;3.67;1.80;;;;;;;4.17;100.00;99629.91;15287840;19;20018;-54
2024/01/30 03:48:25;;;;;;;2.95;1.70;;;;;;;4.18;100.00;99631.59;15291382;19;20025;-53
2024/01/30 03:53:51;;;;;;;3.40;1.70;;;;;;;4.18;100.00;99623.59;15290070;19;20093;-56
2024/01/30 03:59:23;;;;;;;3.45;1.70;;;;;;;4.19;100.00;99621.81;15291308;19;20022;-56
2024/01/30 04:04:49;;;;;;;5.40;1.73;;;;;;;4.21;100.00;99614.59;15294086;19;20018;-51
2024/01/30 04:10:13;;;;;;;2.03;1.80;;;;;;;4.19;100.00;99617.31;15295924;19;20015;-55
2024/01/30 04:15:42;;;;;;;2.33;1.65;;;;;;;4.12;100.00;99610.66;15296137;19;20034;-52
2024/01/30 04:21:07;;;;;;;2.72;1.90;;;;;;;4.23;100.00;99618.03;15288814;19;20366;-57
2024/01/30 04:26:32;;;;;;;2.65;1.88;;;;;;;4.12;100.00;99621.31;15288976;19;20436;-52
2024/01/30 04:31:59;;;;;;;3.30;1.67;;;;;;;3.99;100.00;99631.84;15285606;19;20090;-51
2024/01/30 04:37:24;;;;;;;2.72;1.80;;;;;;;3.90;100.00;99633.25;15290245;19;20018;-53
2024/01/30 04:42:49;;;;;;;2.65;1.52;;;;;;;3.89;100.00;99620.84;15279008;19;20021;-52
2024/01/30 04:48:17;;;;;;;2.72;1.60;;;;;;;3.93;100.00;99627.75;15287119;19;20416;-52
2024/01/30 04:53:41;;;;;;;2.05;1.70;;;;;;;3.92;100.00;99620.69;15291159;19;20371;-53
2024/01/30 04:59:06;;;;;;;2.67;1.67;;;;;;;3.99;100.00;99615.84;15284136;19;20032;-53
2024/01/30 05:04:33;;;;;;;2.83;2.00;;;;;;;4.03;100.00;99611.19;15285301;19;20007;-55
2024/01/30 05:09:58;;;;;;;3.65;1.75;;;;;;;4.03;100.00;99611.19;15280339;19;20021;-52
2024/01/30 05:15:24;;;;;;;1.90;1.55;;;;;;;4.04;100.00;99613.75;15288245;19;20362;-51
2024/01/30 05:20:52;;;;;;;2.33;1.65;;;;;;;4.07;100.00;99602.91;15287504;19;20018;-51
2024/01/30 05:26:16;;;;;;;2.10;1.60;;;;;;;4.09;100.00;99602.81;15285634;19;20462;-53
2024/01/30 05:31:41;;;;;;;2.13;1.60;;;;;;;4.06;100.00;99609.19;15281504;19;20089;-53
2024/01/30 05:37:09;;;;;;;3.38;1.95;;;;;;;4.10;100.00;99613.41;15292929;19;20015;-53
2024/01/30 05:42:33;;;;;;;1.98;1.63;;;;;;;4.03;100.00;99616.53;15293838;19;20011;-51
2024/01/30 05:47:57;;;;;;;1.73;1.40;;;;;;;3.91;100.00;99620.75;15301878;19;20031;-51
2024/01/30 05:53:25;;;;;;;2.10;1.90;;;;;;;3.83;100.00;99615.88;15303282;19;20029;-55
2024/01/30 05:58:50;;;;;;;3.78;2.10;;;;;;;3.81;100.00;99607.13;15303450;19;20089;-51
2024/01/30 06:04:14;;;;;;;2.00;1.80;;;;;;;3.77;100.00;99610.91;15302240;19;20018;-54
2024/01/30 06:09:41;;;;;;;3.00;1.90;;;;;;;3.74;100.00;99624.41;15299548;19;20031;-54
2024/01/30 06:15:06;;;;;;;2.80;1.75;;;;;;;3.73;100.00;99615.56;15297548;19;20021;-52
2024/01/30 06:20:31;;;;;;;3.22;1.88;;;;;;;3.71;100.00;99604.13;15299998;19;20018;-53
2024/01/30 06:25:59;;;;;;;4.45;2.03;;;;;;;3.64;100.00;99611.59;15301752;19;20062;-53
2024/01/30 06:31:23;;;;;;;2.25;1.80;;;;;;;3.60;100.00;99615.38;15302356;19;20014;-56
2024/01/30 06:36:48;;;;;;;2.45;1.83;;;;;;;3.57;100.00;99604.91;15303545;19;20022;-54
2024/01/30 06:42:15;;;;;;;3.13;1.98;;;;;;;3.50;100.00;99603.53;15298729;19;20042;-52
2024/01/30 06:47:40;;;;;;;3.35;2.00;;;;;;;3.47;100.00;99606.38;15294799;19;20018;-51
2024/01/30 06:53:04;;;;;;;3.25;1.70;;;;;;;3.43;100.00;99612.81;15285701;19;20471;-52
2024/01/30 06:58:32;;;;;;;4.80;2.10;;;;;;;3.43;100.00;99613.66;15294461;19;20055;-56
2024/01/30 07:03:57;;;;;;;2.72;2.00;;;;;;;3.43;100.00;99613.66;15289464;19;20040;-55
2024/01/30 07:09:23;;;;;;;2.28;1.88;;;;;;;3.39;100.00;99618.31;15298248;19;20015;-53
2024/01/30 07:14:50;;;;;;;3.55;2.00;;;;;;;3.37;100.00;99620.22;15294081;19;20019;-56
2024/01/30 07:20:20;;;;;;;3.65;2.08;;;;;;;3.39;100.00;99620.97;15188285;19;2004112;-56
2024/01/30 07:25:45;;;;;;;2.35;1.90;;;;;;;3.42;100.00;99611.94;15297211;19;20082;-57
2024/01/30 07:31:14;;;;;;;3.30;1.80;;;;;;;3.51;100.00;99621.25;15291982;19;20026;-56
2024/01/30 07:36:38;;;;;;;4.47;2.00;;;;;;;3.57;100.00;99625.34;15294192;19;20036;-57
2024/01/30 07:42:03;;;;;;;2.70;1.90;;;;;;;3.54;100.00;99626.41;15292727;19;20082;-55
2024/01/30 07:47:30;;;;;;;2.88;2.08;;;;;;;3.58;100.00;99633.28;15294258;19;20086;-56
2024/01/30 07:52:55;;;;;;;3.15;2.20;;;;;;;3.70;100.00;99637.03;15292878;19;20010;-53
2024/01/30 07:58:19;;;;;;;2.70;1.85;;;;;;;3.77;100.00;99637.56;15295364;19;20014;-56
2024/01/30 08:03:47;;;;;;;3.58;1.83;;;;;;;3.87;100.00;99633.41;15289338;19;20018;-56
2024/01/30 08:09:12;;;;;;;2.97;2.05;;;;;;;3.97;100.00;99644.41;15285091;19;20029;-55
2024/01/30 08:14:36;;;;;;;3.00;2.08;;;;;;;4.06;100.00;99638.53;15293691;19;20029;-53
2024/01/30 08:20:04;;;;;;;3.53;2.08;;;;;;;4.16;100.00;99644.19;15292779;19;20082;-56
2024/01/30 08:25:29;;;;;;;3.22;2.10;;;;;;;4.22;100.00;99646.50;15292865;19;20010;-57
2024/01/30 08:30:55;;;;;;;2.80;2.03;;;;;;;4.31;100.00;99640.59;15290009;19;20026;-52
2024/01/30 08:36:22;;;;;;;4.03;2.20;;;;;;;4.43;100.00;99641.69;15292863;19;20014;-57
2024/01/30 08:41:46;;;;;;;4.70;2.45;;;;;;;4.57;100.00;99632.84;15284345;19;20037;-58
2024/01/30 08:47:11;;;;;;;3.38;2.38;;;;;;;4.73;100.00;99637.25;15292975;19;20049;-54
2024/01/30 08:52:38;;;;;;;7.07;4.55;;;;;;;4.92;100.00;99632.50;15286757;19;20106;-58
2024/01/30 08:58:05;;;;;;;3.67;2.20;;;;;;;5.06;100.00;99623.59;15288728;19;20010;-57
2024/01/30 09:03:30;;;;;;;3.95;2.28;;;;;;;5.22;100.00;99617.31;15287991;19;20026;-58
2024/01/30 09:08:58;;;;;;;2.95;2.20;;;;;;;5.36;100.00;99619.09;14778268;19;10001196;-57
2024/01/30 09:14:23;;;;;;;4.75;2.47;;;;;;;5.53;100.00;99618.88;15285430;19;20037;-56
2024/01/30 09:19:47;;;;;;;3.38;2.20;;;;;;;5.68;100.00;99618.84;15302899;19;20041;-53
2024/01/30 09:25:14;;;;;;;4.15;2.40;;;;;;;5.76;100.00;99621.00;15306432;19;20031;-57
2024/01/30 09:30:39;;;;;;;2.70;2.42;;;;;;;5.83;100.00;99623.16;15304928;19;20039;-57
2024/01/30 09:36:03;;;;;;;2.83;2.20;;;;;;;5.91;100.00;99621.81;15305910;19;20025;-58
2024/01/30 09:41:33;;;;;;;3.67;2.72;;;;;;;6.02;100.00;99616.63;15302256;19;20097;-57
2024/01/30 09:47:03;;;;;;;4.55;2.72;;;;;;;6.13;100.00;99624.78;15297781;19;20010;-57
2024/01/30 09:52:34;;;;;;;3.63;2.40;;;;;;;6.28;100.00;99614.88;15297639;19;20014;-57
2024/01/30 09:58:01;;;;;;;3.27;2.40;;;;;;;6.48;100.00;99618.88;15302352;19;20006;-57
2024/01/30 10:03:26;;;;;;;3.58;2.60;;;;;;;6.70;100.00;99609.34;15301972;19;20034;-52
2024/01/30 10:08:51;;;;;;;3.22;2.13;;;;;;;6.92;100.00;99605.13;15300331;19;20081;-57
2024/01/30 10:14:19;;;;;;;4.20;2.28;;;;;;;7.09;100.00;99607.50;15300179;19;20035;-57
2024/01/30 10:19:44;;;;;;;3.15;2.10;;;;;;;7.23;100.00;99605.66;15294844;19;20029;-56
2024/01/30 10:25:09;;;;;;;3.45;2.70;;;;;;;7.40;100.00;99605.25;15302228;19;20014;-57
2024/01/30 10:30:36;;;;;;;2.67;2.28;;;;;;;7.60;100.00;99592.22;15297838;19;20014;-58
2024/01/30 10:36:03;;;;;;;4.03;2.35;;;;;;;7.78;100.00;99591.81;15301730;19;20093;-57
2024/01/30 10:41:30;;;;;;;3.60;2.33;;;;;;;7.95;100.00;99586.03;15299364;19;20353;-56
2024/01/30 10:47:03;;;;;;;4.30;2.50;;;;;;;8.06;100.00;99570.94;15299339;19;20050;-57
2024/01/30 10:52:35;;;;;;;3.88;2.30;;;;;;;8.19;100.00;99574.41;15291977;19;20006;-57
2024/01/30 10:58:01;;;;;;;4.05;2.33;;;;;;;8.39;100.00;99572.03;15300746;19;20025;-57
2024/01/30 11:03:29;;;;;;;3.00;2.17;;;;;;;8.58;100.00;99574.19;15300751;19;20463;-58
2024/01/30 11:09:09;;;;;;;2.88;2.20;;;;;;;8.79;100.00;99566.25;15298051;19;20017;-56
2024/01/30 11:14:35;;;;;;;4.00;2.37;;;;;;;9.00;100.00;99560.13;15298881;19;20078;-56
2024/01/30 11:20:05;;;;;;;3.53;2.20;;;;;;;9.24;100.00;99570.75;15295039;19;20022;-56
2024/01/30 11:25:30;;;;;;;4.70;2.40;;;;;;;9.43;100.00;99564.72;15032646;19;5002571;-56
2024/01/30 11:31:06;;;;;;;3.25;2.10;;;;;;;9.59;100.00;99553.56;15294017;19;20475;-57
2024/01/30 11:36:37;;;;;;;3.78;2.20;;;;;;;9.70;100.00;99544.59;15297893;19;20640;-57
2024/01/30 11:42:04;;;;;;;3.78;2.40;;;;;;;9.81;100.00;99541.00;15292595;19;20081;-58
2024/01/30 11:47:29;;;;;;;4.70;2.05;;;;;;;9.91;100.00;99524.94;15295068;19;20391;-58
2024/01/30 11:52:56;;;;;;;3.08;2.10;;;;;;;10.00;100.00;99518.75;15292051;19;20486;-56
2024/01/30 11:58:21;;;;;;;2.90;2.30;;;;;;;10.11;100.00;99516.00;15290862;19;20379;-53
2024/01/30 12:03:51;;;;;;;3.70;2.38;;;;;;;10.23;100.00;99507.84;15295010;19;20539;-51
2024/01/30 12:09:19;;;;;;;3.03;2.00;;;;;;;10.30;100.00;99511.72;15294627;19;20025;-55
2024/01/30 12:14:44;;;;;;;3.30;2.00;;;;;;;10.36;100.00;99505.81;15296260;19;20378;-57
2024/01/30 12:20:13;;;;;;;5.05;2.30;;;;;;;10.43;100.00;99503.47;15295715;19;20014;-53
2024/01/30 12:25:40;;;;;;;4.03;2.03;;;;;;;10.51;100.00;99508.19;15294914;19;20021;-52
2024/01/30 12:31:06;;;;;;;3.40;2.10;;;;;;;10.56;100.00;99504.09;15289912;19;20018;-53
2024/01/30 12:36:32;;;;;;;3.20;2.10;;;;;;;10.64;100.00;99495.34;15294299;19;20020;-55
2024/01/30 12:42:01;;;;;;;3.13;1.80;;;;;;;10.70;100.00;99499.34;15292579;19;20031;-57
2024/01/30 12:47:26;;;;;;;5.38;2.03;;;;;;;10.74;100.00;99493.56;15294264;19;20042;-55
2024/01/30 12:52:52;;;;;;;3.15;1.80;;;;;;;10.83;100.00;99491.84;15292161;19;20026;-51
2024/01/30 12:58:19;;;;;;;3.25;1.83;;;;;;;10.89;100.00;99483.22;15289861;19;20014;-55
2024/01/30 13:03:45;;;;;;;2.85;1.85;;;;;;;10.96;100.00;99488.94;15293199;19;20026;-51
2024/01/30 13:09:10;;;;;;;4.18;1.77;;;;;;;11.03;100.00;99490.06;15292124;19;20360;-53
2024/01/30 13:14:37;;;;;;;3.17;1.90;;;;;;;11.19;100.00;99480.59;15291401;19;20020;-54
2024/01/30 13:20:03;;;;;;;2.67;1.60;;;;;;;11.27;100.00;99488.00;15291188;19;20014;-56
2024/01/30 13:25:29;;;;;;;2.33;1.63;;;;;;;11.23;100.00;99476.66;15288086;19;20074;-59
2024/01/30 13:30:57;;;;;;;2.42;1.50;;;;;;;11.17;100.00;99486.13;15282514;19;20022;-55
2024/01/30 13:36:22;;;;;;;2.58;1.75;;;;;;;11.18;100.00;99470.81;15292427;19;20099;-55
2024/01/30 13:41:48;;;;;;;2.97;1.70;;;;;;;11.10;100.00;99474.19;15288557;19;20348;-57
2024/01/30 13:47:15;;;;;;;2.28;1.70;;;;;;;10.98;100.00;99462.69;15291316;19;20701;-55
2024/01/30 13:52:46;;;;;;;4.38;1.70;;;;;;;10.89;100.00;99468.88;15286614;19;20032;-52
2024/01/30 13:58:12;;;;;;;2.13;1.67;;;;;;;10.81;100.00;99474.13;15289960;19;20025;-56
2024/01/30 14:03:39;;;;;;;1.75;1.42;;;;;;;10.75;100.00;99471.00;15294495;19;20022;-54
2024/01/30 14:09:04;;;;;;;2.88;1.67;;;;;;;10.66;100.00;99471.78;15303544;19;20018;-53
2024/01/30 14:14:30;;;;;;;3.58;2.00;;;;;;;10.60;100.00;99464.25;15306393;19;20021;-56
2024/01/30 14:19:58;;;;;;;3.28;1.80;;;;;;;10.56;100.00;99470.91;15303493;19;20015;-57
2024/01/30 14:25:23;;;;;;;1.83;1.60;;;;;;;10.48;100.00;99458.09;15302852;19;20015;-57
2024/01/30 14:30:48;;;;;;;5.47;1.80;;;;;;;10.43;100.00;99466.59;15348638;19;20034;-60
2024/01/30 14:36:16;;;;;;;4.25;1.80;;;;;;;10.38;100.00;99467.97;15301338;19;20015;-59
2024/01/30 14:41:42;;;;;;;3.17;2.00;;;;;;;10.32;100.00;99469.34;15296367;19;20671;-58
2024/01/30 14:47:07;;;;;;;3.05;1.98;;;;;;;10.25;100.00;99470.88;15300147;19;20031;-58
2024/01/30 14:52:41;;;;;;;3.28;1.80;;;;;;;10.17;100.00;99474.22;15293131;19;20030;-58
2024/01/30 14:58:07;;;;;;;2.58;1.73;;;;;;;10.12;100.00;99453.09;15297756;19;20367;-59
2024/01/30 15:03:31;;;;;;;2.72;1.80;;;;;;;10.05;100.00;99460.00;15298205;19;20426;-60
2024/01/30 15:08:58;;;;;;;3.28;1.98;;;;;;;9.98;100.00;99466.88;15298243;19;20539;-55
2024/01/30 15:14:24;;;;;;;2.55;1.67;;;;;;;9.91;100.00;99457.63;15288033;19;20015;-57
2024/01/30 15:19:50;;;;;;;2.88;1.95;;;;;;;9.81;100.00;99455.72;15296444;19;20037;-57
2024/01/30 15:25:19;;;;;;;3.63;2.17;;;;;;;9.75;100.00;99445.47;15296142;19;20011;-56
2024/01/30 15:30:44;;;;;;;3.22;2.00;;;;;;;9.69;100.00;99462.16;15270382;19;20035;-54
2024/01/30 15:36:10;;;;;;;2.78;1.80;;;;;;;9.60;100.00;99454.84;15268962;19;20049;-57
2024/01/30 15:41:37;;;;;;;4.55;2.10;;;;;;;9.53;100.00;99467.94;15284902;19;20014;-54
2024/01/30 15:47:02;;;;;;;3.30;2.70;;;;;;;9.42;100.00;99476.94;15291639;19;20014;-56
2024/01/30 15:52:33;;;;;;;6.82;2.90;;;;;;;9.30;100.00;99483.34;15288595;19;20014;-55
2024/01/30 15:58:00;;;;;;;3.57;2.27;;;;;;;9.14;100.00;99489.97;15289145;19;20025;-56
2024/01/30 16:03:25;;;;;;;3.92;2.10;;;;;;;9.03;100.00;99484.63;15285990;19;20074;-57
2024/01/30 16:08:51;;;;;;;3.00;2.13;;;;;;;8.90;100.00;99499.03;15279982;19;20049;-55
2024/01/30 16:14:18;;;;;;;3.03;2.00;;;;;;;8.74;100.00;99490.53;15281716;19;20021;-56
2024/01/30 16:19:43;;;;;;;3.22;2.20;;;;;;;8.68;100.00;99491.00;15284110;19;20027;-56
2024/01/30 16:25:07;;;;;;;3.55;2.20;;;;;;;8.66;100.00;99495.63;15285110;19;20018;-56
2024/01/30 16:30:35;;;;;;;2.50;2.30;;;;;;;8.55;100.00;99505.41;15285167;19;20030;-57
2024/01/30 16:36:00;;;;;;;3.75;2.47;;;;;;;8.45;100.00;99518.69;15282972;19;20018;-58
2024/01/30 16:41:26;;;;;;;4.40;2.50;;;;;;;8.40;100.00;99525.41;15280664;19;20027;-57
2024/01/30 16:46:56;;;;;;;3.55;2.20;;;;;;;8.40;100.00;99523.56;15278720;19;20024;-58
2024/01/30 16:52:28;;;;;;;3.10;2.30;;;;;;;8.41;100.00;99525.28;15275844;19;20026;-57
2024/01/30 16:57:53;;;;;;;3.72;2.55;;;;;;;8.38;100.00;99533.56;15277594;19;20028;-57
2024/01/30 17:03:20;;;;;;;4.07;2.47;;;;;;;8.44;100.00;99524.16;15283842;19;20022;-57
2024/01/30 17:08:45;;;;;;;3.88;2.63;;;;;;;8.40;100.00;99528.09;15279937;19;20014;-58
2024/01/30 17:14:11;;;;;;;4.15;3.00;;;;;;;8.38;100.00;99530.03;15273560;19;20019;-58
2024/01/30 17:19:38;;;;;;;4.18;2.85;;;;;;;8.38;100.00;99516.63;15273274;19;20367;-56
2024/01/30 17:25:04;;;;;;;4.85;2.60;;;;;;;8.37;100.00;99525.66;15280047;19;20026;-58
2024/01/30 17:30:29;;;;;;;3.85;2.28;;;;;;;8.34;100.00;99524.06;15277910;19;20010;-58
2024/01/30 17:35:56;;;;;;;3.38;2.58;;;;;;;8.32;100.00;99532.22;15279901;19;20471;-55
2024/01/30 17:41:21;;;;;;;4.20;2.63;;;;;;;8.26;100.00;99537.22;15291235;19;20021;-56
2024/01/30 17:46:45;;;;;;;4.07;2.03;;;;;;;8.24;100.00;99545.38;15287015;19;20029;-56
2024/01/30 17:52:19;;;;;;;2.58;2.10;;;;;;;8.23;100.00;99551.72;15283648;19;20021;-56
2024/01/30 17:57:44;;;;;;;3.08;2.13;;;;;;;8.21;100.00;99556.34;15297638;19;20419;-58
2024/01/30 18:03:09;;;;;;;4.07;2.70;;;;;;;8.17;100.00;99552.22;15291195;19;20734;-54
2024/01/30 18:08:37;;;;;;;3.97;2.60;;;;;;;8.13;100.00;99564.16;15294626;19;20023;-54
2024/01/30 18:14:01;;;;;;;3.65;2.50;;;;;;;8.03;100.00;99564.00;15292124;19;20017;-53
2024/01/30 18:19:26;;;;;;;3.42;2.58;;;;;;;7.99;100.00;99573.28;15293614;19;20010;-55
2024/01/30 18:24:53;;;;;;;3.72;2.55;;;;;;;7.94;100.00;99572.75;15289142;19;20074;-56
2024/01/30 18:30:18;;;;;;;3.33;2.50;;;;;;;7.87;100.00;99575.03;15293357;19;20029;-56
2024/01/30 18:35:42;;;;;;;3.20;2.45;;;;;;;7.84;100.00;99583.31;15294270;19;20078;-56
2024/01/30 18:41:09;;;;;;;2.88;2.30;;;;;;;7.81;100.00;99581.72;15291010;19;20003;-56
2024/01/30 18:46:34;;;;;;;3.53;2.58;;;;;;;7.81;100.00;99587.09;15293944;19;20676;-57
2024/01/30 18:52:05;;;;;;;3.30;2.53;;;;;;;7.83;100.00;99605.75;15288269;19;20043;-56
2024/01/30 18:57:35;;;;;;;3.95;2.50;;;;;;;7.79;100.00;99602.44;15291937;19;20014;-56
2024/01/30 19:03:00;;;;;;;5.88;2.70;;;;;;;7.80;100.00;99600.63;15280812;19;20038;-56
2024/01/30 19:08:25;;;;;;;4.93;2.60;;;;;;;7.81;100.00;99603.19;15292548;19;20085;-57
2024/01/30 19:13:53;;;;;;;4.20;3.28;;;;;;;7.85;100.00;99593.06;15290266;19;20014;-55
2024/01/30 19:19:18;;;;;;;3.78;2.90;;;;;;;7.90;100.00;99593.59;15287509;19;20022;-53
2024/01/30 19:24:42;;;;;;;4.43;2.90;;;;;;;7.95;100.00;99601.28;14778651;19;10000557;-54
2024/01/30 19:30:12;;;;;;;3.58;2.90;;;;;;;7.94;100.00;99599.59;15287954;19;20010;-54
2024/01/30 19:35:36;;;;;;;3.38;2.60;;;;;;;7.91;100.00;99614.09;15291749;19;20416;-52
2024/01/30 19:41:01;;;;;;;3.75;2.47;;;;;;;7.90;100.00;99615.06;15288643;19;20387;-52
2024/01/30 19:46:28;;;;;;;4.53;2.45;;;;;;;7.92;100.00;99626.53;15289128;19;20018;-54
2024/01/30 19:51:53;;;;;;;3.85;2.50;;;;;;;7.95;100.00;99628.97;15286391;19;20975;-52
2024/01/30 19:57:17;;;;;;;3.22;2.30;;;;;;;8.00;100.00;99634.88;15284424;19;20344;-53
2024/01/30 20:02:45;;;;;;;4.57;2.80;;;;;;;8.02;100.00;99642.78;15282092;19;20042;-53
2024/01/30 20:08:13;;;;;;;3.75;2.70;;;;;;;7.99;100.00;99654.63;15288566;19;20010;-52
2024/01/30 20:13:39;;;;;;;4.10;2.70;;;;;;;8.00;100.00;99658.16;15282216;19;20479;-54
2024/01/30 20:19:07;;;;;;;4.25;2.50;;;;;;;7.98;100.00;99663.63;15286545;19;20020;-51
2024/01/30 20:24:32;;;;;;;4.38;2.55;;;;;;;7.97;100.00;99678.03;15287623;19;20367;-51
2024/01/30 20:29:57;;;;;;;4.93;2.40;;;;;;;7.99;100.00;99675.25;15280231;19;20021;-57
2024/01/30 20:35:26;;;;;;;5.32;2.60;;;;;;;8.01;100.00;99690.25;15283370;19;20021;-54
2024/01/30 20:40:51;;;;;;;5.18;2.38;;;;;;;8.02;100.00;99691.97;15284219;19;20023;-54
2024/01/30 20:46:16;;;;;;;5.25;2.67;;;;;;;8.00;100.00;99690.34;15283761;19;20038;-51
2024/01/30 20:51:51;;;;;;;3.75;2.60;;;;;;;7.99;100.00;99688.66;15283284;19;20031;-54
2024/01/30 20:57:22;;;;;;;3.80;2.63;;;;;;;7.98;100.00;99686.94;15285630;19;20014;-49
2024/01/30 21:02:47;;;;;;;4.83;2.90;;;;;;;7.95;100.00;99696.06;15280330;19;20496;-51
2024/01/30 21:08:16;;;;;;;6.40;3.25;;;;;;;7.95;100.00;99696.06;15286639;19;20014;-50
2024/01/30 21:13:41;;;;;;;6.97;3.30;;;;;;;7.92;100.00;99696.31;15281018;19;20019;-54
2024/01/30 21:19:08;;;;;;;4.32;3.13;;;;;;;7.90;100.00;99705.41;15280075;19;20117;-50
2024/01/30 21:24:35;;;;;;;4.05;2.78;;;;;;;7.88;100.00;99700.19;15280595;19;20085;-51
2024/01/30 21:30:01;;;;;;;4.70;2.88;;;;;;;7.87;100.00;99693.09;15279133;19;20029;-53
2024/01/30 21:35:27;;;;;;;4.05;2.88;;;;;;;7.85;100.00;99686.97;15276907;19;20019;-49
2024/01/30 21:40:55;;;;;;;4.57;2.85;;;;;;;7.84;100.00;99687.94;15281134;19;20082;-50
2024/01/30 21:46:26;;;;;;;3.90;3.08;;;;;;;7.82;100.00;99687.22;15284683;19;20018;-53
2024/01/30 21:51:56;;;;;;;4.05;3.05;;;;;;;7.80;100.00;99691.84;15279972;19;20480;-52
2024/01/30 21:57:24;;;;;;;4.00;2.83;;;;;;;7.83;100.00;99696.97;15285179;19;20014;-51
2024/01/30 22:02:48;;;;;;;4.72;3.10;;;;;;;7.81;100.00;99698.94;15275040;19;20046;-55
2024/01/30 22:08:14;;;;;;;3.78;2.97;;;;;;;7.74;100.00;99706.56;15272960;19;20384;-54
2024/01/30 22:13:55;;;;;;;4.68;3.20;;;;;;;7.68;100.00;99698.94;15277599;19;20415;-56
2024/01/30 22:19:21;;;;;;;4.47;2.80;;;;;;;7.65;100.00;99701.84;15275686;19;20023;-56
2024/01/30 22:24:45;;;;;;;5.20;2.80;;;;;;;7.62;100.00;99700.25;15282677;19;20033;-54
2024/01/30 22:30:14;;;;;;;3.58;2.70;;;;;;;7.56;100.00;99703.38;15291974;19;20094;-54
2024/01/30 22:35:38;;;;;;;5.82;3.20;;;;;;;7.50;100.00;99714.53;15288460;19;20030;-53
2024/01/30 22:41:03;;;;;;;4.10;2.80;;;;;;;7.42;100.00;99722.28;15287116;19;20025;-56
2024/01/30 22:46:30;;;;;;;5.03;3.00;;;;;;;7.37;100.00;99720.78;15293841;19;20023;-54
2024/01/30 22:51:55;;;;;;;4.13;2.90;;;;;;;7.31;100.00;99729.25;15284380;19;20022;-54
2024/01/30 22:57:19;;;;;;;4.03;2.72;;;;;;;7.26;100.00;99731.41;15295356;19;20783;-56
2024/01/30 23:02:48;;;;;;;4.97;3.20;;;;;;;7.24;100.00;99728.84;15290328;19;20010;-56
2024/01/30 23:08:14;;;;;;;3.13;2.80;;;;;;;7.22;100.00;99736.13;15284712;19;20021;-56
2024/01/30 23:13:40;;;;;;;4.78;2.63;;;;;;;7.20;100.00;99730.00;15289319;19;20034;-57
2024/01/30 23:19:07;;;;;;;6.65;2.80;;;;;;;7.23;100.00;99737.00;15291202;19;20022;-55
2024/01/30 23:24:32;;;;;;;5.10;3.10;;;;;;;7.28;100.00;99750.06;15291628;19;20024;-56
2024/01/30 23:29:56;;;;;;;3.75;2.97;;;;;;;7.28;100.00;99752.75;15292372;19;20018;-54
2024/01/30 23:35:25;;;;;;;5.35;3.00;;;;;;;7.30;100.00;99750.78;15287574;19;20029;-57
2024/01/30 23:40:49;;;;;;;5.40;3.08;;;;;;;7.32;100.00;99747.06;15286897;19;20018;-56
2024/01/30 23:46:14;;;;;;;4.75;3.20;;;;;;;7.37;100.00;99757.47;15287165;19;20356;-56
2024/01/30 23:51:41;;;;;;;4.20;2.90;;;;;;;7.39;100.00;99756.38;15287273;19;20014;-54
2024/01/30 23:57:08;;;;;;;3.10;2.80;;;;;;;7.40;100.00;99768.81;15288349;19;20014;-56
